Rechercher aéroport 
image banner adimage banner adimage banner ad
image banner ad

16CA - Police Pistol Range

Situé à San Francisco, United States

ICAO - 16CA, IATA -

Données fournies par Airmate  

Information générale

Coordonnées: N37°43'12" W122°29'57"
Élévation : 24 feet MSL.
Variation magnétique : 16° East
Voir autres Aéroports à California

Données opérationnelles

Special qualification required
Heure actuelle UTC:
Heure actuelle locale:
Météo à : KSFO - San Francisco Intl ( 16 km )
METAR: KSFO 270456Z COR 31007KT 10SM FEW008 BKN200 17/12 A2993 RMK A02 SLP136 T01670117
TAF: KSFO 270309Z 2703/2806 31013KT P6SM FEW008 SCT200 FM270500 29009KT P6SM FEW005 BKN100 FM271000 29006KT P6SM VCSH SCT008 SCT015 BKN100 TEMPO 2710/2714 BKN012 FM271600 28007KT P6SM FEW010 SCT100 SCT200 FM272100 31014KT P6SM SCT250 FM280500 31010KT P6SM FEW006 SCT250
Voir NOTAMs / SUP AIP / TFR affectant cet aéroport [VIEW]
Fréquences de communication: [VIEW]

Pistes:

Coordonnées de l'aéroport

Adresse: San Francisco United States

Vue satellite de 16CA